sensor_id;sensor_type;location;lat;lon;timestamp;P1;durP1;ratioP1;P2;durP2;ratioP2
26920;SDS011;14483;47.844;9.660;2022-07-21T00:00:38;13.80;;;10.48;;
26920;SDS011;14483;47.844;9.660;2022-07-21T00:03:05;12.18;;;10.30;;
26920;SDS011;14483;47.844;9.660;2022-07-21T00:05:31;14.93;;;9.57;;
26920;SDS011;14483;47.844;9.660;2022-07-21T00:07:57;11.57;;;10.18;;
26920;SDS011;14483;47.844;9.660;2022-07-21T00:10:24;13.82;;;9.88;;
26920;SDS011;14483;47.844;9.660;2022-07-21T00:12:51;12.35;;;9.45;;
26920;SDS011;14483;47.844;9.660;2022-07-21T00:15:19;11.07;;;8.95;;
26920;SDS011;14483;47.844;9.660;2022-07-21T00:17:46;12.77;;;9.50;;
26920;SDS011;14483;47.844;9.660;2022-07-21T00:20:13;11.35;;;9.38;;
26920;SDS011;14483;47.844;9.660;2022-07-21T00:22:40;12.32;;;8.98;;
26920;SDS011;14483;47.844;9.660;2022-07-21T00:25:07;10.80;;;8.60;;
26920;SDS011;14483;47.844;9.660;2022-07-21T00:27:34;12.50;;;9.80;;
26920;SDS011;14483;47.844;9.660;2022-07-21T00:30:00;11.60;;;9.27;;
26920;SDS011;14483;47.844;9.660;2022-07-21T00:32:28;13.70;;;9.63;;
26920;SDS011;14483;47.844;9.660;2022-07-21T00:34:55;11.32;;;9.02;;
26920;SDS011;14483;47.844;9.660;2022-07-21T00:37:21;11.20;;;9.40;;
26920;SDS011;14483;47.844;9.660;2022-07-21T00:39:49;11.10;;;8.73;;
26920;SDS011;14483;47.844;9.660;2022-07-21T00:42:22;14.25;;;9.43;;
26920;SDS011;14483;47.844;9.660;2022-07-21T00:47:15;13.02;;;10.20;;
26920;SDS011;14483;47.844;9.660;2022-07-21T00:49:42;11.88;;;9.32;;
26920;SDS011;14483;47.844;9.660;2022-07-21T00:52:09;13.68;;;9.60;;
26920;SDS011;14483;47.844;9.660;2022-07-21T00:54:36;10.77;;;9.18;;
26920;SDS011;14483;47.844;9.660;2022-07-21T00:57:02;12.07;;;9.13;;
26920;SDS011;14483;47.844;9.660;2022-07-21T00:59:29;13.02;;;9.82;;
26920;SDS011;14483;47.844;9.660;2022-07-21T01:01:55;11.45;;;9.40;;
26920;SDS011;14483;47.844;9.660;2022-07-21T01:04:22;12.85;;;9.75;;
26920;SDS011;14483;47.844;9.660;2022-07-21T01:06:49;12.90;;;9.85;;
26920;SDS011;14483;47.844;9.660;2022-07-21T01:09:16;13.38;;;9.68;;
26920;SDS011;14483;47.844;9.660;2022-07-21T01:11:42;12.77;;;9.90;;
26920;SDS011;14483;47.844;9.660;2022-07-21T01:14:09;13.25;;;9.88;;
26920;SDS011;14483;47.844;9.660;2022-07-21T01:16:35;15.43;;;10.05;;
26920;SDS011;14483;47.844;9.660;2022-07-21T01:19:02;14.27;;;10.73;;
26920;SDS011;14483;47.844;9.660;2022-07-21T01:21:31;13.60;;;10.82;;
26920;SDS011;14483;47.844;9.660;2022-07-21T01:23:58;11.95;;;10.23;;
26920;SDS011;14483;47.844;9.660;2022-07-21T01:26:24;14.70;;;10.13;;
26920;SDS011;14483;47.844;9.660;2022-07-21T01:28:51;14.07;;;10.80;;
26920;SDS011;14483;47.844;9.660;2022-07-21T01:31:17;13.38;;;10.43;;
26920;SDS011;14483;47.844;9.660;2022-07-21T01:33:43;16.98;;;10.38;;
26920;SDS011;14483;47.844;9.660;2022-07-21T01:36:10;14.07;;;10.15;;
26920;SDS011;14483;47.844;9.660;2022-07-21T01:38:38;16.05;;;11.25;;
26920;SDS011;14483;47.844;9.660;2022-07-21T01:41:22;17.10;;;11.52;;
26920;SDS011;14483;47.844;9.660;2022-07-21T01:43:59;14.23;;;11.05;;
26920;SDS011;14483;47.844;9.660;2022-07-21T01:46:27;17.63;;;11.15;;
26920;SDS011;14483;47.844;9.660;2022-07-21T01:48:53;15.52;;;11.75;;
26920;SDS011;14483;47.844;9.660;2022-07-21T01:51:20;14.40;;;11.02;;
26920;SDS011;14483;47.844;9.660;2022-07-21T01:53:47;15.57;;;11.55;;
26920;SDS011;14483;47.844;9.660;2022-07-21T01:56:14;17.55;;;11.20;;
26920;SDS011;14483;47.844;9.660;2022-07-21T01:58:40;14.18;;;11.07;;
26920;SDS011;14483;47.844;9.660;2022-07-21T02:01:07;15.63;;;11.70;;
26920;SDS011;14483;47.844;9.660;2022-07-21T02:03:33;14.95;;;11.45;;
26920;SDS011;14483;47.844;9.660;2022-07-21T02:06:00;15.30;;;11.60;;
26920;SDS011;14483;47.844;9.660;2022-07-21T02:08:27;15.50;;;11.38;;
26920;SDS011;14483;47.844;9.660;2022-07-21T02:10:55;17.23;;;11.35;;
26920;SDS011;14483;47.844;9.660;2022-07-21T02:13:21;12.90;;;10.68;;
26920;SDS011;14483;47.844;9.660;2022-07-21T02:15:47;17.35;;;11.43;;
26920;SDS011;14483;47.844;9.660;2022-07-21T02:18:14;13.70;;;11.18;;
26920;SDS011;14483;47.844;9.660;2022-07-21T02:20:40;15.27;;;11.40;;
26920;SDS011;14483;47.844;9.660;2022-07-21T02:23:06;17.27;;;12.52;;
26920;SDS011;14483;47.844;9.660;2022-07-21T02:25:33;15.43;;;11.02;;
26920;SDS011;14483;47.844;9.660;2022-07-21T02:28:01;14.82;;;11.75;;
26920;SDS011;14483;47.844;9.660;2022-07-21T02:30:27;14.82;;;12.30;;
26920;SDS011;14483;47.844;9.660;2022-07-21T02:32:54;15.55;;;11.95;;
26920;SDS011;14483;47.844;9.660;2022-07-21T02:35:20;17.25;;;12.85;;
26920;SDS011;14483;47.844;9.660;2022-07-21T02:37:46;21.40;;;12.80;;
26920;SDS011;14483;47.844;9.660;2022-07-21T02:40:13;17.65;;;12.25;;
26920;SDS011;14483;47.844;9.660;2022-07-21T02:42:39;14.23;;;11.95;;
26920;SDS011;14483;47.844;9.660;2022-07-21T02:45:08;19.13;;;13.35;;
26920;SDS011;14483;47.844;9.660;2022-07-21T02:47:46;17.52;;;12.82;;
26920;SDS011;14483;47.844;9.660;2022-07-21T02:50:14;16.02;;;13.18;;
26920;SDS011;14483;47.844;9.660;2022-07-21T02:52:41;16.63;;;12.32;;
26920;SDS011;14483;47.844;9.660;2022-07-21T02:55:08;19.60;;;12.63;;
26920;SDS011;14483;47.844;9.660;2022-07-21T02:57:34;17.10;;;12.52;;
26920;SDS011;14483;47.844;9.660;2022-07-21T03:00:01;17.58;;;13.32;;
26920;SDS011;14483;47.844;9.660;2022-07-21T03:02:29;16.80;;;12.60;;
26920;SDS011;14483;47.844;9.660;2022-07-21T03:04:55;16.92;;;13.32;;
26920;SDS011;14483;47.844;9.660;2022-07-21T03:07:21;17.90;;;13.45;;
26920;SDS011;14483;47.844;9.660;2022-07-21T03:09:48;18.70;;;12.55;;
26920;SDS011;14483;47.844;9.660;2022-07-21T03:12:14;15.52;;;12.65;;
26920;SDS011;14483;47.844;9.660;2022-07-21T03:14:41;16.25;;;12.32;;
26920;SDS011;14483;47.844;9.660;2022-07-21T03:17:07;14.88;;;11.93;;
26920;SDS011;14483;47.844;9.660;2022-07-21T03:19:35;15.38;;;11.82;;
26920;SDS011;14483;47.844;9.660;2022-07-21T03:22:01;19.00;;;13.02;;
26920;SDS011;14483;47.844;9.660;2022-07-21T03:24:27;17.38;;;12.82;;
26920;SDS011;14483;47.844;9.660;2022-07-21T03:26:54;16.48;;;12.23;;
26920;SDS011;14483;47.844;9.660;2022-07-21T03:29:21;15.30;;;11.57;;
26920;SDS011;14483;47.844;9.660;2022-07-21T03:31:47;13.65;;;10.68;;
26920;SDS011;14483;47.844;9.660;2022-07-21T03:34:14;15.95;;;12.02;;
26920;SDS011;14483;47.844;9.660;2022-07-21T03:36:41;18.02;;;12.05;;
26920;SDS011;14483;47.844;9.660;2022-07-21T03:39:08;14.02;;;11.40;;
26920;SDS011;14483;47.844;9.660;2022-07-21T03:41:34;13.45;;;11.45;;
26920;SDS011;14483;47.844;9.660;2022-07-21T03:44:00;17.92;;;11.80;;
26920;SDS011;14483;47.844;9.660;2022-07-21T03:46:27;14.23;;;11.10;;
26920;SDS011;14483;47.844;9.660;2022-07-21T03:48:53;17.58;;;11.13;;
26920;SDS011;14483;47.844;9.660;2022-07-21T03:51:20;15.20;;;10.98;;
26920;SDS011;14483;47.844;9.660;2022-07-21T03:53:48;12.82;;;10.65;;
26920;SDS011;14483;47.844;9.660;2022-07-21T03:56:14;14.88;;;10.38;;
26920;SDS011;14483;47.844;9.660;2022-07-21T03:58:40;13.02;;;10.18;;
26920;SDS011;14483;47.844;9.660;2022-07-21T04:01:07;17.35;;;11.13;;
26920;SDS011;14483;47.844;9.660;2022-07-21T04:03:33;14.27;;;10.75;;
26920;SDS011;14483;47.844;9.660;2022-07-21T04:06:00;13.38;;;9.95;;
26920;SDS011;14483;47.844;9.660;2022-07-21T04:08:26;14.55;;;10.85;;
26920;SDS011;14483;47.844;9.660;2022-07-21T04:10:54;13.65;;;10.38;;
26920;SDS011;14483;47.844;9.660;2022-07-21T04:13:23;12.32;;;9.85;;
26920;SDS011;14483;47.844;9.660;2022-07-21T04:15:49;14.77;;;10.32;;
26920;SDS011;14483;47.844;9.660;2022-07-21T04:18:16;14.80;;;10.65;;
26920;SDS011;14483;47.844;9.660;2022-07-21T04:20:42;13.10;;;10.27;;
26920;SDS011;14483;47.844;9.660;2022-07-21T04:23:08;15.40;;;11.05;;
26920;SDS011;14483;47.844;9.660;2022-07-21T04:25:35;13.25;;;10.48;;
26920;SDS011;14483;47.844;9.660;2022-07-21T04:28:04;14.40;;;11.00;;
26920;SDS011;14483;47.844;9.660;2022-07-21T04:30:32;13.95;;;11.23;;
26920;SDS011;14483;47.844;9.660;2022-07-21T04:32:59;17.90;;;10.55;;
26920;SDS011;14483;47.844;9.660;2022-07-21T04:35:25;15.80;;;11.10;;
26920;SDS011;14483;47.844;9.660;2022-07-21T04:37:51;12.25;;;10.20;;
26920;SDS011;14483;47.844;9.660;2022-07-21T04:40:18;14.00;;;10.55;;
26920;SDS011;14483;47.844;9.660;2022-07-21T04:42:45;13.75;;;10.23;;
26920;SDS011;14483;47.844;9.660;2022-07-21T04:45:13;16.90;;;11.70;;
26920;SDS011;14483;47.844;9.660;2022-07-21T04:47:43;12.90;;;10.18;;
26920;SDS011;14483;47.844;9.660;2022-07-21T04:50:10;14.27;;;10.50;;
26920;SDS011;14483;47.844;9.660;2022-07-21T04:52:36;13.68;;;10.82;;
26920;SDS011;14483;47.844;9.660;2022-07-21T04:55:03;14.13;;;11.57;;
26920;SDS011;14483;47.844;9.660;2022-07-21T04:57:29;15.10;;;11.23;;
26920;SDS011;14483;47.844;9.660;2022-07-21T04:59:56;16.83;;;10.68;;
26920;SDS011;14483;47.844;9.660;2022-07-21T05:02:23;16.65;;;10.80;;
26920;SDS011;14483;47.844;9.660;2022-07-21T05:04:50;15.57;;;11.13;;
26920;SDS011;14483;47.844;9.660;2022-07-21T05:07:16;16.50;;;11.50;;
26920;SDS011;14483;47.844;9.660;2022-07-21T05:09:42;15.02;;;11.55;;
26920;SDS011;14483;47.844;9.660;2022-07-21T05:12:09;16.50;;;12.20;;
26920;SDS011;14483;47.844;9.660;2022-07-21T05:14:36;14.55;;;11.15;;
26920;SDS011;14483;47.844;9.660;2022-07-21T05:17:02;14.68;;;11.27;;
26920;SDS011;14483;47.844;9.660;2022-07-21T05:19:30;16.88;;;11.77;;
26920;SDS011;14483;47.844;9.660;2022-07-21T05:21:56;13.50;;;11.40;;
26920;SDS011;14483;47.844;9.660;2022-07-21T05:24:23;16.70;;;10.90;;
26920;SDS011;14483;47.844;9.660;2022-07-21T05:26:49;14.55;;;10.63;;
26920;SDS011;14483;47.844;9.660;2022-07-21T05:29:16;15.95;;;11.10;;
26920;SDS011;14483;47.844;9.660;2022-07-21T05:31:42;15.55;;;11.30;;
26920;SDS011;14483;47.844;9.660;2022-07-21T05:34:09;17.13;;;12.27;;
26920;SDS011;14483;47.844;9.660;2022-07-21T05:36:36;17.13;;;12.02;;
26920;SDS011;14483;47.844;9.660;2022-07-21T05:39:03;17.67;;;12.80;;
26920;SDS011;14483;47.844;9.660;2022-07-21T05:41:29;15.77;;;11.25;;
26920;SDS011;14483;47.844;9.660;2022-07-21T05:43:56;17.30;;;11.35;;
26920;SDS011;14483;47.844;9.660;2022-07-21T05:46:22;12.43;;;10.63;;
26920;SDS011;14483;47.844;9.660;2022-07-21T05:48:48;13.25;;;11.45;;
26920;SDS011;14483;47.844;9.660;2022-07-21T05:51:15;18.60;;;11.88;;
26920;SDS011;14483;47.844;9.660;2022-07-21T05:53:42;15.10;;;10.82;;
26920;SDS011;14483;47.844;9.660;2022-07-21T05:56:09;15.48;;;11.23;;
26920;SDS011;14483;47.844;9.660;2022-07-21T05:58:35;13.90;;;11.20;;
26920;SDS011;14483;47.844;9.660;2022-07-21T06:01:02;18.35;;;12.32;;
26920;SDS011;14483;47.844;9.660;2022-07-21T06:03:34;17.13;;;11.60;;
26920;SDS011;14483;47.844;9.660;2022-07-21T06:06:01;15.23;;;11.82;;
26920;SDS011;14483;47.844;9.660;2022-07-21T06:08:27;13.85;;;11.13;;
26920;SDS011;14483;47.844;9.660;2022-07-21T06:10:55;14.73;;;11.20;;
26920;SDS011;14483;47.844;9.660;2022-07-21T06:13:22;14.40;;;11.75;;
26920;SDS011;14483;47.844;9.660;2022-07-21T06:15:48;15.23;;;12.35;;
26920;SDS011;14483;47.844;9.660;2022-07-21T06:18:15;15.60;;;11.30;;
26920;SDS011;14483;47.844;9.660;2022-07-21T06:20:41;14.40;;;11.32;;
26920;SDS011;14483;47.844;9.660;2022-07-21T06:23:07;14.93;;;11.35;;
26920;SDS011;14483;47.844;9.660;2022-07-21T06:25:34;14.75;;;11.55;;
26920;SDS011;14483;47.844;9.660;2022-07-21T06:28:02;15.25;;;11.65;;
26920;SDS011;14483;47.844;9.660;2022-07-21T06:30:29;16.80;;;11.50;;
26920;SDS011;14483;47.844;9.660;2022-07-21T06:32:55;15.60;;;11.80;;
26920;SDS011;14483;47.844;9.660;2022-07-21T06:35:21;13.88;;;11.40;;
26920;SDS011;14483;47.844;9.660;2022-07-21T06:37:48;15.48;;;12.10;;
26920;SDS011;14483;47.844;9.660;2022-07-21T06:40:14;13.75;;;10.82;;
26920;SDS011;14483;47.844;9.660;2022-07-21T06:42:41;18.50;;;11.82;;
26920;SDS011;14483;47.844;9.660;2022-07-21T06:45:08;16.63;;;12.30;;
26920;SDS011;14483;47.844;9.660;2022-07-21T06:47:35;16.02;;;10.70;;
26920;SDS011;14483;47.844;9.660;2022-07-21T06:50:02;15.45;;;11.68;;
26920;SDS011;14483;47.844;9.660;2022-07-21T06:52:28;14.30;;;11.80;;
26920;SDS011;14483;47.844;9.660;2022-07-21T06:54:55;15.55;;;11.15;;
26920;SDS011;14483;47.844;9.660;2022-07-21T06:57:21;18.33;;;12.27;;
26920;SDS011;14483;47.844;9.660;2022-07-21T06:59:48;14.93;;;11.07;;
26920;SDS011;14483;47.844;9.660;2022-07-21T07:02:16;16.05;;;11.32;;
26920;SDS011;14483;47.844;9.660;2022-07-21T07:04:42;14.95;;;11.50;;
26920;SDS011;14483;47.844;9.660;2022-07-21T07:07:09;13.00;;;10.95;;
26920;SDS011;14483;47.844;9.660;2022-07-21T07:09:35;15.63;;;11.32;;
26920;SDS011;14483;47.844;9.660;2022-07-21T07:12:02;12.80;;;10.88;;
26920;SDS011;14483;47.844;9.660;2022-07-21T07:14:29;15.43;;;11.18;;
26920;SDS011;14483;47.844;9.660;2022-07-21T07:16:55;15.38;;;11.15;;
26920;SDS011;14483;47.844;9.660;2022-07-21T07:19:23;13.20;;;11.13;;
26920;SDS011;14483;47.844;9.660;2022-07-21T07:21:49;15.07;;;10.93;;
26920;SDS011;14483;47.844;9.660;2022-07-21T07:24:16;13.20;;;11.10;;
26920;SDS011;14483;47.844;9.660;2022-07-21T07:26:42;14.50;;;11.50;;
26920;SDS011;14483;47.844;9.660;2022-07-21T07:29:09;14.90;;;10.20;;
26920;SDS011;14483;47.844;9.660;2022-07-21T07:31:35;15.25;;;10.63;;
26920;SDS011;14483;47.844;9.660;2022-07-21T07:34:01;14.75;;;10.57;;
26920;SDS011;14483;47.844;9.660;2022-07-21T07:36:29;13.05;;;10.68;;
26920;SDS011;14483;47.844;9.660;2022-07-21T07:38:56;13.45;;;9.93;;
26920;SDS011;14483;47.844;9.660;2022-07-21T07:41:23;14.10;;;11.13;;
26920;SDS011;14483;47.844;9.660;2022-07-21T07:43:50;16.58;;;11.35;;
26920;SDS011;14483;47.844;9.660;2022-07-21T07:46:17;15.38;;;11.07;;
26920;SDS011;14483;47.844;9.660;2022-07-21T07:48:43;14.80;;;10.77;;
26920;SDS011;14483;47.844;9.660;2022-07-21T07:51:10;13.82;;;10.68;;
26920;SDS011;14483;47.844;9.660;2022-07-21T07:53:38;13.75;;;11.13;;
26920;SDS011;14483;47.844;9.660;2022-07-21T07:56:05;13.57;;;11.30;;
26920;SDS011;14483;47.844;9.660;2022-07-21T07:58:32;14.88;;;10.60;;
26920;SDS011;14483;47.844;9.660;2022-07-21T08:00:59;15.80;;;11.30;;
26920;SDS011;14483;47.844;9.660;2022-07-21T08:03:25;14.50;;;11.15;;
26920;SDS011;14483;47.844;9.660;2022-07-21T08:05:52;16.10;;;10.88;;
26920;SDS011;14483;47.844;9.660;2022-07-21T08:08:19;16.27;;;10.93;;
26920;SDS011;14483;47.844;9.660;2022-07-21T08:10:47;14.98;;;11.35;;
26920;SDS011;14483;47.844;9.660;2022-07-21T08:13:15;14.70;;;11.00;;
26920;SDS011;14483;47.844;9.660;2022-07-21T08:15:41;13.93;;;10.77;;
26920;SDS011;14483;47.844;9.660;2022-07-21T08:18:08;16.48;;;11.68;;
26920;SDS011;14483;47.844;9.660;2022-07-21T08:20:35;14.45;;;10.63;;
26920;SDS011;14483;47.844;9.660;2022-07-21T08:23:02;14.25;;;10.48;;
26920;SDS011;14483;47.844;9.660;2022-07-21T08:25:28;14.30;;;11.00;;
26920;SDS011;14483;47.844;9.660;2022-07-21T08:27:56;14.85;;;11.25;;
26920;SDS011;14483;47.844;9.660;2022-07-21T08:30:23;13.45;;;10.98;;
26920;SDS011;14483;47.844;9.660;2022-07-21T08:32:49;12.43;;;9.77;;
26920;SDS011;14483;47.844;9.660;2022-07-21T08:35:15;12.23;;;10.15;;
26920;SDS011;14483;47.844;9.660;2022-07-21T08:37:42;17.63;;;10.77;;
26920;SDS011;14483;47.844;9.660;2022-07-21T08:40:09;13.02;;;10.98;;
26920;SDS011;14483;47.844;9.660;2022-07-21T08:42:36;12.98;;;10.05;;
26920;SDS011;14483;47.844;9.660;2022-07-21T08:45:04;23.15;;;11.82;;
26920;SDS011;14483;47.844;9.660;2022-07-21T08:47:31;14.63;;;11.25;;
26920;SDS011;14483;47.844;9.660;2022-07-21T08:49:57;15.20;;;11.18;;
26920;SDS011;14483;47.844;9.660;2022-07-21T08:52:25;13.77;;;10.02;;
26920;SDS011;14483;47.844;9.660;2022-07-21T08:54:52;17.88;;;11.88;;
26920;SDS011;14483;47.844;9.660;2022-07-21T08:57:18;13.52;;;10.60;;
26920;SDS011;14483;47.844;9.660;2022-07-21T08:59:44;13.13;;;10.15;;
26920;SDS011;14483;47.844;9.660;2022-07-21T09:02:26;12.43;;;9.55;;
26920;SDS011;14483;47.844;9.660;2022-07-21T09:04:53;13.40;;;10.48;;
26920;SDS011;14483;47.844;9.660;2022-07-21T09:07:19;13.30;;;9.93;;
26920;SDS011;14483;47.844;9.660;2022-07-21T09:09:53;13.13;;;9.15;;
26920;SDS011;14483;47.844;9.660;2022-07-21T09:12:20;12.02;;;9.45;;
26920;SDS011;14483;47.844;9.660;2022-07-21T09:14:46;12.25;;;9.73;;
26920;SDS011;14483;47.844;9.660;2022-07-21T09:17:13;12.88;;;8.32;;
26920;SDS011;14483;47.844;9.660;2022-07-21T09:19:43;12.70;;;9.70;;
26920;SDS011;14483;47.844;9.660;2022-07-21T09:22:12;17.02;;;8.57;;
26920;SDS011;14483;47.844;9.660;2022-07-21T09:24:39;13.98;;;8.88;;
26920;SDS011;14483;47.844;9.660;2022-07-21T09:27:09;10.77;;;7.78;;
26920;SDS011;14483;47.844;9.660;2022-07-21T09:29:37;9.82;;;7.13;;
26920;SDS011;14483;47.844;9.660;2022-07-21T09:32:17;10.05;;;7.03;;
26920;SDS011;14483;47.844;9.660;2022-07-21T09:34:46;10.15;;;7.47;;
26920;SDS011;14483;47.844;9.660;2022-07-21T09:37:13;11.00;;;6.88;;
26920;SDS011;14483;47.844;9.660;2022-07-21T09:39:40;11.90;;;6.45;;
26920;SDS011;14483;47.844;9.660;2022-07-21T09:42:13;12.25;;;7.47;;
26920;SDS011;14483;47.844;9.660;2022-07-21T09:44:41;11.93;;;7.57;;
26920;SDS011;14483;47.844;9.660;2022-07-21T09:47:11;11.63;;;6.88;;
26920;SDS011;14483;47.844;9.660;2022-07-21T09:49:38;9.75;;;6.97;;
26920;SDS011;14483;47.844;9.660;2022-07-21T09:52:18;12.10;;;8.00;;
26920;SDS011;14483;47.844;9.660;2022-07-21T09:54:44;8.00;;;6.80;;
26920;SDS011;14483;47.844;9.660;2022-07-21T09:57:11;9.77;;;6.45;;
26920;SDS011;14483;47.844;9.660;2022-07-21T09:59:38;9.40;;;6.28;;
26920;SDS011;14483;47.844;9.660;2022-07-21T10:02:04;10.10;;;6.57;;
26920;SDS011;14483;47.844;9.660;2022-07-21T10:04:31;8.88;;;6.57;;
26920;SDS011;14483;47.844;9.660;2022-07-21T10:06:58;8.90;;;6.70;;
26920;SDS011;14483;47.844;9.660;2022-07-21T10:09:26;9.35;;;7.20;;
26920;SDS011;14483;47.844;9.660;2022-07-21T10:11:53;10.60;;;7.97;;
26920;SDS011;14483;47.844;9.660;2022-07-21T10:14:20;11.30;;;8.85;;
26920;SDS011;14483;47.844;9.660;2022-07-21T10:16:46;6.97;;;5.97;;
26920;SDS011;14483;47.844;9.660;2022-07-21T10:19:13;8.00;;;6.68;;
26920;SDS011;14483;47.844;9.660;2022-07-21T10:21:41;9.75;;;7.22;;
26920;SDS011;14483;47.844;9.660;2022-07-21T10:24:09;7.50;;;5.47;;
26920;SDS011;14483;47.844;9.660;2022-07-21T10:26:38;10.88;;;6.93;;
26920;SDS011;14483;47.844;9.660;2022-07-21T10:29:04;7.45;;;6.20;;
26920;SDS011;14483;47.844;9.660;2022-07-21T10:31:31;10.75;;;6.68;;
26920;SDS011;14483;47.844;9.660;2022-07-21T10:34:06;8.32;;;6.82;;
26920;SDS011;14483;47.844;9.660;2022-07-21T10:36:40;10.45;;;6.38;;
26920;SDS011;14483;47.844;9.660;2022-07-21T10:41:35;9.10;;;6.03;;
26920;SDS011;14483;47.844;9.660;2022-07-21T10:44:04;8.23;;;6.45;;
26920;SDS011;14483;47.844;9.660;2022-07-21T10:46:58;8.82;;;6.55;;
26920;SDS011;14483;47.844;9.660;2022-07-21T10:49:40;6.00;;;4.88;;
26920;SDS011;14483;47.844;9.660;2022-07-21T10:52:22;7.85;;;3.92;;
26920;SDS011;14483;47.844;9.660;2022-07-21T10:55:13;7.78;;;5.70;;
26920;SDS011;14483;47.844;9.660;2022-07-21T10:57:42;8.25;;;5.30;;
26920;SDS011;14483;47.844;9.660;2022-07-21T11:00:20;7.45;;;5.35;;
26920;SDS011;14483;47.844;9.660;2022-07-21T11:02:48;8.73;;;6.05;;
26920;SDS011;14483;47.844;9.660;2022-07-21T11:05:15;6.07;;;5.00;;
26920;SDS011;14483;47.844;9.660;2022-07-21T11:10:26;7.97;;;4.55;;
26920;SDS011;14483;47.844;9.660;2022-07-21T11:12:56;8.20;;;4.75;;
26920;SDS011;14483;47.844;9.660;2022-07-21T11:18:10;9.30;;;5.38;;
26920;SDS011;14483;47.844;9.660;2022-07-21T11:20:36;7.88;;;5.57;;
26920;SDS011;14483;47.844;9.660;2022-07-21T11:23:03;10.43;;;6.00;;
26920;SDS011;14483;47.844;9.660;2022-07-21T11:25:29;6.65;;;5.00;;
26920;SDS011;14483;47.844;9.660;2022-07-21T11:27:55;7.05;;;5.97;;
26920;SDS011;14483;47.844;9.660;2022-07-21T11:30:22;7.05;;;5.53;;
26920;SDS011;14483;47.844;9.660;2022-07-21T11:32:48;10.20;;;6.13;;
26920;SDS011;14483;47.844;9.660;2022-07-21T11:35:16;6.28;;;4.65;;
26920;SDS011;14483;47.844;9.660;2022-07-21T11:37:43;8.63;;;5.18;;
26920;SDS011;14483;47.844;9.660;2022-07-21T11:40:11;7.13;;;5.55;;
26920;SDS011;14483;47.844;9.660;2022-07-21T11:42:38;6.07;;;4.60;;
26920;SDS011;14483;47.844;9.660;2022-07-21T11:45:05;5.75;;;4.57;;
26920;SDS011;14483;47.844;9.660;2022-07-21T11:47:32;5.22;;;4.43;;
26920;SDS011;14483;47.844;9.660;2022-07-21T11:50:00;5.60;;;4.00;;
26920;SDS011;14483;47.844;9.660;2022-07-21T11:52:28;5.40;;;4.32;;
26920;SDS011;14483;47.844;9.660;2022-07-21T11:54:55;6.68;;;4.10;;
26920;SDS011;14483;47.844;9.660;2022-07-21T11:57:23;6.00;;;4.25;;
26920;SDS011;14483;47.844;9.660;2022-07-21T11:59:49;6.47;;;4.43;;
26920;SDS011;14483;47.844;9.660;2022-07-21T12:02:16;4.60;;;3.80;;
26920;SDS011;14483;47.844;9.660;2022-07-21T12:04:43;5.65;;;4.45;;
26920;SDS011;14483;47.844;9.660;2022-07-21T12:07:15;5.95;;;4.22;;
26920;SDS011;14483;47.844;9.660;2022-07-21T12:09:43;5.95;;;4.25;;
26920;SDS011;14483;47.844;9.660;2022-07-21T12:12:10;6.32;;;3.78;;
26920;SDS011;14483;47.844;9.660;2022-07-21T12:14:44;5.25;;;4.00;;
26920;SDS011;14483;47.844;9.660;2022-07-21T12:17:11;4.30;;;3.72;;
26920;SDS011;14483;47.844;9.660;2022-07-21T12:19:37;5.63;;;4.00;;
26920;SDS011;14483;47.844;9.660;2022-07-21T12:22:04;6.25;;;4.28;;
26920;SDS011;14483;47.844;9.660;2022-07-21T12:24:52;4.47;;;3.83;;
26920;SDS011;14483;47.844;9.660;2022-07-21T12:27:19;8.32;;;4.47;;
26920;SDS011;14483;47.844;9.660;2022-07-21T12:29:45;5.85;;;3.90;;
26920;SDS011;14483;47.844;9.660;2022-07-21T12:32:12;11.82;;;3.63;;
26920;SDS011;14483;47.844;9.660;2022-07-21T12:34:48;4.93;;;3.83;;
26920;SDS011;14483;47.844;9.660;2022-07-21T12:37:15;5.03;;;4.00;;
26920;SDS011;14483;47.844;9.660;2022-07-21T12:39:42;7.68;;;4.05;;
26920;SDS011;14483;47.844;9.660;2022-07-21T12:42:28;5.70;;;4.18;;
26920;SDS011;14483;47.844;9.660;2022-07-21T12:44:55;5.95;;;4.35;;
26920;SDS011;14483;47.844;9.660;2022-07-21T12:47:22;6.05;;;4.07;;
26920;SDS011;14483;47.844;9.660;2022-07-21T12:49:58;5.43;;;4.30;;
26920;SDS011;14483;47.844;9.660;2022-07-21T12:52:25;6.45;;;4.80;;
26920;SDS011;14483;47.844;9.660;2022-07-21T12:54:51;6.18;;;4.32;;
26920;SDS011;14483;47.844;9.660;2022-07-21T12:57:18;6.85;;;4.57;;
26920;SDS011;14483;47.844;9.660;2022-07-21T12:59:46;6.47;;;4.05;;
26920;SDS011;14483;47.844;9.660;2022-07-21T13:02:12;4.90;;;4.28;;
26920;SDS011;14483;47.844;9.660;2022-07-21T13:04:38;6.38;;;4.30;;
26920;SDS011;14483;47.844;9.660;2022-07-21T13:07:05;6.15;;;4.13;;
26920;SDS011;14483;47.844;9.660;2022-07-21T13:09:31;6.43;;;4.38;;
26920;SDS011;14483;47.844;9.660;2022-07-21T13:11:57;5.50;;;4.43;;
26920;SDS011;14483;47.844;9.660;2022-07-21T13:14:24;5.78;;;4.20;;
26920;SDS011;14483;47.844;9.660;2022-07-21T13:16:52;5.70;;;4.45;;
26920;SDS011;14483;47.844;9.660;2022-07-21T13:19:21;6.43;;;4.07;;
26920;SDS011;14483;47.844;9.660;2022-07-21T13:21:48;5.70;;;4.40;;
26920;SDS011;14483;47.844;9.660;2022-07-21T13:24:14;6.68;;;4.50;;
26920;SDS011;14483;47.844;9.660;2022-07-21T13:26:40;6.20;;;4.65;;
26920;SDS011;14483;47.844;9.660;2022-07-21T13:29:07;6.60;;;4.07;;
26920;SDS011;14483;47.844;9.660;2022-07-21T13:31:33;8.23;;;4.53;;
26920;SDS011;14483;47.844;9.660;2022-07-21T13:34:03;5.95;;;3.90;;
26920;SDS011;14483;47.844;9.660;2022-07-21T13:36:31;5.85;;;4.47;;
26920;SDS011;14483;47.844;9.660;2022-07-21T13:38:58;5.65;;;4.40;;
26920;SDS011;14483;47.844;9.660;2022-07-21T13:41:24;7.20;;;3.72;;
26920;SDS011;14483;47.844;9.660;2022-07-21T13:43:51;7.45;;;4.68;;
26920;SDS011;14483;47.844;9.660;2022-07-21T13:46:17;10.10;;;5.00;;
26920;SDS011;14483;47.844;9.660;2022-07-21T13:48:44;5.70;;;4.90;;
26920;SDS011;14483;47.844;9.660;2022-07-21T13:51:12;6.28;;;4.07;;
26920;SDS011;14483;47.844;9.660;2022-07-21T13:53:39;6.13;;;4.32;;
26920;SDS011;14483;47.844;9.660;2022-07-21T13:56:05;6.13;;;4.00;;
26920;SDS011;14483;47.844;9.660;2022-07-21T13:58:32;6.10;;;4.10;;
26920;SDS011;14483;47.844;9.660;2022-07-21T14:00:58;5.65;;;4.53;;
26920;SDS011;14483;47.844;9.660;2022-07-21T14:03:25;5.20;;;4.30;;
26920;SDS011;14483;47.844;9.660;2022-07-21T14:05:51;7.43;;;4.47;;
26920;SDS011;14483;47.844;9.660;2022-07-21T14:08:19;5.53;;;3.83;;
26920;SDS011;14483;47.844;9.660;2022-07-21T14:10:46;4.90;;;4.03;;
26920;SDS011;14483;47.844;9.660;2022-07-21T14:13:12;6.82;;;4.07;;
26920;SDS011;14483;47.844;9.660;2022-07-21T14:15:38;5.20;;;4.28;;
26920;SDS011;14483;47.844;9.660;2022-07-21T14:18:05;8.57;;;4.10;;
26920;SDS011;14483;47.844;9.660;2022-07-21T14:20:31;6.07;;;4.97;;
26920;SDS011;14483;47.844;9.660;2022-07-21T14:22:57;7.20;;;4.28;;
26920;SDS011;14483;47.844;9.660;2022-07-21T14:25:25;7.07;;;4.32;;
26920;SDS011;14483;47.844;9.660;2022-07-21T14:27:53;7.40;;;4.20;;
26920;SDS011;14483;47.844;9.660;2022-07-21T14:30:20;5.50;;;4.25;;
26920;SDS011;14483;47.844;9.660;2022-07-21T14:32:47;5.88;;;4.00;;
26920;SDS011;14483;47.844;9.660;2022-07-21T14:35:13;5.28;;;4.47;;
26920;SDS011;14483;47.844;9.660;2022-07-21T14:37:42;5.93;;;4.75;;
26920;SDS011;14483;47.844;9.660;2022-07-21T14:40:08;5.53;;;4.88;;
26920;SDS011;14483;47.844;9.660;2022-07-21T14:42:36;6.05;;;4.53;;